createdAt,value
2018-08-18T00:00:17.891Z,16.5
2018-08-18T00:01:07.898Z,16.5
2018-08-18T00:01:57.994Z,16.5
2018-08-18T00:02:48.091Z,16.4
2018-08-18T00:03:37.891Z,16.4
2018-08-18T00:04:27.970Z,16.4
2018-08-18T00:05:18.258Z,16.4
2018-08-18T00:06:08.086Z,16.5
2018-08-18T00:06:58.402Z,16.4
2018-08-18T00:07:48.203Z,16.4
2018-08-18T00:08:37.989Z,16.4
2018-08-18T00:09:28.324Z,16.3
2018-08-18T00:10:18.747Z,16.3
2018-08-18T00:11:08.171Z,16.3
2018-08-18T00:11:58.265Z,16.2
2018-08-18T00:12:48.866Z,16.2
2018-08-18T00:13:38.920Z,16.2
2018-08-18T00:14:28.709Z,16.2
2018-08-18T00:15:18.767Z,16.2
2018-08-18T00:16:09.102Z,16.2
2018-08-18T00:16:58.895Z,16.1
2018-08-18T00:17:48.954Z,16.1
2018-08-18T00:18:38.724Z,16.1
2018-08-18T00:37:32.319Z,15.4
2018-08-18T00:38:22.043Z,15.3
2018-08-18T00:39:12.111Z,15.3
2018-08-18T00:40:01.588Z,15.4
2018-08-18T00:40:52.499Z,15.4
2018-08-18T00:41:42.596Z,15.4
2018-08-18T00:42:31.793Z,15.4
2018-08-18T00:43:22.700Z,15.4
2018-08-18T00:44:12.532Z,15.4
2018-08-18T00:45:02.844Z,15.4
2018-08-18T00:45:52.883Z,15.4
2018-08-18T00:46:42.692Z,15.4
2018-08-18T00:47:33.021Z,15.4
2018-08-18T00:48:23.114Z,15.5
2018-08-18T00:49:13.222Z,15.5
2018-08-18T00:50:02.945Z,15.6
2018-08-18T00:50:53.077Z,15.7
2018-08-18T00:51:43.361Z,15.7
2018-08-18T00:52:33.129Z,15.7
2018-08-18T00:53:22.914Z,15.7
2018-08-18T00:54:13.604Z,15.8
2018-08-18T00:55:03.413Z,15.8
2018-08-18T00:55:53.683Z,15.8
2018-08-18T00:56:43.778Z,15.8
2018-08-18T00:57:33.278Z,15.9
2018-08-18T00:58:23.590Z,15.9
2018-08-18T00:59:13.939Z,15.9
2018-08-18T01:00:04.003Z,15.9
2018-08-18T01:00:53.785Z,15.9
2018-08-18T01:01:44.115Z,15.9
2018-08-18T01:02:33.912Z,15.9
2018-08-18T01:03:24.250Z,15.9
2018-08-18T01:04:13.737Z,15.9
2018-08-18T01:05:04.139Z,15.9
2018-08-18T01:05:54.434Z,15.9
2018-08-18T01:06:44.212Z,15.9
2018-08-18T01:07:34.284Z,15.9
2018-08-18T01:08:24.415Z,15.9
2018-08-18T01:09:14.675Z,15.9
2018-08-18T01:10:04.460Z,15.8
2018-08-18T01:10:55.492Z,15.8
2018-08-18T01:11:46.637Z,15.8
2018-08-18T01:12:35.770Z,15.8
2018-08-18T01:13:24.521Z,15.8
2018-08-18T01:14:16.256Z,15.8
2018-08-18T01:15:05.108Z,15.8
2018-08-18T01:15:55.077Z,15.8
2018-08-18T01:16:44.998Z,15.8
2018-08-18T01:17:35.029Z,15.8
2018-08-18T01:18:25.389Z,15.8
2018-08-18T01:19:15.158Z,15.8
2018-08-18T01:20:05.266Z,15.8
2018-08-18T01:20:55.598Z,15.7
2018-08-18T01:21:45.659Z,15.7
2018-08-18T01:22:35.446Z,15.7
2018-08-18T01:23:25.792Z,15.7
2018-08-18T01:24:15.869Z,15.7
2018-08-18T01:25:05.925Z,15.6
2018-08-18T01:25:55.708Z,15.6
2018-08-18T01:26:45.761Z,15.6
2018-08-18T01:27:36.135Z,15.6
2018-08-18T01:28:26.221Z,15.6
2018-08-18T01:29:15.963Z,15.6
2018-08-18T01:30:06.322Z,15.6
2018-08-18T01:30:56.387Z,15.6
2018-08-18T01:31:45.867Z,15.5
2018-08-18T01:32:36.518Z,15.4
2018-08-18T01:33:26.561Z,15.4
2018-08-18T01:34:16.642Z,15.4
2018-08-18T01:35:06.706Z,15.4
2018-08-18T01:35:56.780Z,15.4
2018-08-18T01:36:46.817Z,15.4
2018-08-18T01:37:35.755Z,15.4
2018-08-18T01:38:26.115Z,15.4
2018-08-18T01:39:16.449Z,15.4
2018-08-18T01:40:06.195Z,15.4
2018-08-18T01:40:56.853Z,15.4
2018-08-18T01:41:46.630Z,15.4
2018-08-18T01:42:36.962Z,15.4
2018-08-18T01:43:26.742Z,15.4
2018-08-18T01:44:17.392Z,15.4
2018-08-18T01:45:07.179Z,15.3
2018-08-18T01:45:57.216Z,15.3
2018-08-18T01:46:47.027Z,15.3
2018-08-18T01:47:37.626Z,15.3
2018-08-18T01:48:27.430Z,15.2
2018-08-18T01:49:17.477Z,15.2
2018-08-18T01:50:07.539Z,15.2
2018-08-18T01:50:57.636Z,15.1
2018-08-18T01:51:47.419Z,15.2
2018-08-18T01:52:37.728Z,15.2
2018-08-18T01:53:27.838Z,15.2
2018-08-18T01:54:18.160Z,15.2
2018-08-18T01:55:07.965Z,15.2
2018-08-18T01:55:58.298Z,15.2
2018-08-18T01:56:48.058Z,15.1
2018-08-18T01:57:38.433Z,15.1
2018-08-18T01:58:28.244Z,15.1
2018-08-18T01:59:18.294Z,15.1
2018-08-18T02:00:08.074Z,15.1
2018-08-18T02:00:58.397Z,15.1
2018-08-18T02:01:48.775Z,15
2018-08-18T02:02:38.835Z,15
2018-08-18T02:03:28.861Z,15
2018-08-18T02:04:18.395Z,15
2018-08-18T02:05:09.005Z,15.1
2018-08-18T02:05:58.788Z,15.1
2018-08-18T02:06:48.552Z,15
2018-08-18T02:07:39.196Z,15
2018-08-18T02:08:29.248Z,15
2018-08-18T02:09:19.038Z,15.1
2018-08-18T02:10:08.840Z,15.1
2018-08-18T02:10:59.458Z,15
2018-08-18T02:11:49.520Z,15
2018-08-18T02:12:39.033Z,15
2018-08-18T02:13:29.365Z,15
2018-08-18T02:14:19.440Z,14.9
2018-08-18T02:15:09.280Z,14.9
2018-08-18T02:15:59.810Z,14.9
2018-08-18T02:16:49.594Z,14.9
2018-08-18T02:17:39.968Z,15
2018-08-18T02:18:29.996Z,15
2018-08-18T02:19:19.511Z,15
2018-08-18T02:20:10.969Z,15.1
2018-08-18T02:21:00.192Z,15.1
2018-08-18T02:21:50.273Z,15.1
2018-08-18T02:22:40.352Z,15.1
2018-08-18T02:23:29.833Z,15
2018-08-18T02:24:20.209Z,14.9
2018-08-18T02:25:09.960Z,15.1
2018-08-18T02:26:00.016Z,15.2
2018-08-18T02:26:49.520Z,15.2
2018-08-18T02:27:40.441Z,15.2
2018-08-18T02:28:30.803Z,15.2
2018-08-18T02:29:20.274Z,15.4
2018-08-18T02:30:10.936Z,15.4
2018-08-18T02:31:00.739Z,15.4
2018-08-18T02:31:51.032Z,15.4
2018-08-18T02:32:40.841Z,15.4
2018-08-18T02:33:31.177Z,15.4
2018-08-18T02:34:21.257Z,15.4
2018-08-18T02:35:11.063Z,15.4
2018-08-18T02:36:01.114Z,15.4
2018-08-18T02:36:51.181Z,15.4
2018-08-18T02:37:41.530Z,15.4
2018-08-18T02:38:31.343Z,15.4
2018-08-18T02:39:21.378Z,15.3
2018-08-18T02:40:12.080Z,15.3
2018-08-18T02:41:00.924Z,15.3
2018-08-18T02:41:51.824Z,15.3
2018-08-18T02:42:41.903Z,15.3
2018-08-18T02:43:31.679Z,15.2
2018-08-18T02:44:21.735Z,15.2
2018-08-18T02:45:11.814Z,15.2
2018-08-18T02:46:02.144Z,15.1
2018-08-18T02:46:52.247Z,15.2
2018-08-18T02:47:42.273Z,15.3
2018-08-18T02:48:32.053Z,15.3
2018-08-18T02:49:22.393Z,15.3
2018-08-18T02:50:12.485Z,15.2
2018-08-18T02:51:02.517Z,15.2
2018-08-18T02:51:52.592Z,15.3
2018-08-18T02:52:42.377Z,15.3
2018-08-18T02:53:32.740Z,15.2
2018-08-18T02:54:22.783Z,15.1
2018-08-18T02:55:12.827Z,15.1
2018-08-18T02:56:02.908Z,15.1
2018-08-18T02:56:52.970Z,15.1
2018-08-18T02:57:43.157Z,15.1
2018-08-18T02:58:33.095Z,15
2018-08-18T02:59:23.167Z,15
2018-08-18T03:00:13.222Z,15
2018-08-18T03:01:02.994Z,15
2018-08-18T03:01:53.343Z,15
2018-08-18T03:02:43.453Z,15
2018-08-18T03:03:33.479Z,14.9
2018-08-18T03:04:23.528Z,15
2018-08-18T03:05:13.585Z,14.9
2018-08-18T03:06:03.395Z,14.9
2018-08-18T03:06:53.455Z,14.9
2018-08-18T03:07:43.658Z,14.9
2018-08-18T03:08:33.048Z,14.9
2018-08-18T03:09:23.970Z,15
2018-08-18T03:10:13.732Z,14.9
2018-08-18T03:11:03.812Z,14.9
2018-08-18T03:11:53.843Z,14.9
2018-08-18T03:12:43.914Z,14.9
2018-08-18T03:13:34.306Z,14.9
2018-08-18T03:14:24.058Z,14.9
2018-08-18T03:15:14.391Z,14.9
2018-08-18T03:16:04.176Z,14.9
2018-08-18T03:16:53.940Z,14.9
2018-08-18T03:17:44.308Z,14.9
2018-08-18T03:18:34.660Z,14.9
2018-08-18T03:19:24.425Z,14.8
2018-08-18T03:20:14.793Z,14.8
2018-08-18T03:21:03.998Z,14.9
2018-08-18T03:21:54.919Z,14.8
2018-08-18T03:22:44.680Z,14.8
2018-08-18T03:23:34.789Z,14.8
2018-08-18T03:24:24.847Z,14.8
2018-08-18T03:25:15.096Z,14.8
2018-08-18T03:26:05.228Z,14.7
2018-08-18T03:26:55.276Z,14.6
2018-08-18T03:27:44.765Z,14.6
2018-08-18T03:28:34.565Z,14.5
2018-08-18T03:29:25.204Z,14.5
2018-08-18T03:30:15.064Z,14.4
2018-08-18T03:31:05.334Z,14.4
2018-08-18T03:31:55.414Z,14.3
2018-08-18T03:32:45.160Z,14.3
2018-08-18T03:33:35.792Z,14.3
2018-08-18T03:34:25.275Z,14.4
2018-08-18T03:35:15.908Z,14.4
2018-08-18T03:36:05.130Z,14.4
2018-08-18T03:36:56.049Z,14.4
2018-08-18T03:37:46.074Z,14.5
2018-08-18T03:38:35.617Z,14.6
2018-08-18T03:39:26.215Z,14.6
2018-08-18T03:40:15.709Z,14.6
2018-08-18T03:41:06.098Z,14.6
2018-08-18T03:41:56.175Z,14.6
2018-08-18T03:42:46.186Z,14.6
2018-08-18T03:43:36.537Z,14.6
2018-08-18T03:44:26.619Z,14.6
2018-08-18T03:45:16.394Z,14.7
2018-08-18T03:46:06.482Z,14.8
2018-08-18T03:46:56.838Z,14.8
2018-08-18T03:47:46.885Z,14.8
2018-08-18T03:48:36.961Z,14.7
2018-08-18T03:49:26.760Z,14.6
2018-08-18T03:50:16.809Z,14.6
2018-08-18T03:51:07.139Z,14.6
2018-08-18T03:51:56.671Z,14.6
2018-08-18T03:52:47.292Z,14.6
2018-08-18T03:53:37.323Z,14.6
2018-08-18T03:54:27.446Z,14.6
2018-08-18T03:55:17.536Z,14.6
2018-08-18T03:56:07.527Z,14.5
2018-08-18T03:56:57.011Z,14.6
2018-08-18T03:57:47.670Z,14.5
2018-08-18T03:58:37.730Z,14.5
2018-08-18T03:59:27.525Z,14.6
2018-08-18T04:00:17.571Z,14.6
2018-08-18T04:01:07.068Z,14.6
2018-08-18T04:01:58.765Z,14.6
2018-08-18T04:02:48.070Z,14.6
2018-08-18T04:03:37.820Z,14.8
2018-08-18T04:04:28.181Z,14.8
2018-08-18T04:05:17.658Z,14.8
2018-08-18T04:06:07.722Z,14.8
2018-08-18T04:06:58.394Z,14.7
2018-08-18T04:07:48.138Z,14.7
2018-08-18T04:08:38.198Z,14.7
2018-08-18T04:09:28.627Z,14.6
2018-08-18T04:10:18.312Z,14.7
2018-08-18T04:11:08.155Z,14.6
2018-08-18T04:11:58.198Z,14.4
2018-08-18T04:12:48.835Z,14.4
2018-08-18T04:13:38.851Z,14.4
2018-08-18T04:14:28.634Z,14.4
2018-08-18T04:15:18.434Z,14.4
2018-08-18T04:16:08.494Z,14.5
2018-08-18T04:16:58.552Z,14.6
2018-08-18T04:17:48.984Z,14.6
2018-08-18T04:18:38.953Z,14.6
2018-08-18T04:19:29.016Z,14.7
2018-08-18T04:20:19.393Z,14.8
2018-08-18T04:21:09.463Z,14.8
2018-08-18T04:21:59.250Z,14.8
2018-08-18T04:22:49.292Z,14.8
2018-08-18T04:23:39.071Z,14.9
2018-08-18T04:24:29.716Z,14.9
2018-08-18T04:25:20.433Z,15
2018-08-18T04:26:09.593Z,15.1
2018-08-18T04:26:59.331Z,15.1
2018-08-18T04:27:49.770Z,15.3
2018-08-18T04:28:40.031Z,15.3
2018-08-18T04:29:30.110Z,15.4
2018-08-18T04:30:19.927Z,15.4
2018-08-18T04:31:10.231Z,15.5
2018-08-18T04:32:00.286Z,15.5
2018-08-18T04:32:50.429Z,15.6
2018-08-18T04:33:40.445Z,15.6
2018-08-18T04:34:30.477Z,15.6
2018-08-18T04:35:20.287Z,15.6
2018-08-18T04:36:10.604Z,15.6
2018-08-18T04:37:00.680Z,15.6
2018-08-18T04:37:50.454Z,15.6
2018-08-18T04:38:40.209Z,15.6
2018-08-18T04:39:30.616Z,15.6
2018-08-18T04:40:20.332Z,15.6
2018-08-18T04:41:10.693Z,15.6
2018-08-18T04:42:00.750Z,15.7
2018-08-18T04:42:51.096Z,15.8
2018-08-18T04:43:41.305Z,15.9
2018-08-18T04:44:31.237Z,16
2018-08-18T04:45:21.014Z,16.1
2018-08-18T04:46:11.358Z,16.1
2018-08-18T04:47:01.173Z,16.1
2018-08-18T04:47:51.517Z,16.1
2018-08-18T04:48:41.283Z,16.2
2018-08-18T05:06:49.901Z,16.4
2018-08-18T05:07:39.899Z,16.6
2018-08-18T05:08:30.261Z,16.6
2018-08-18T05:09:20.313Z,16.7
2018-08-18T05:10:10.378Z,16.8
2018-08-18T05:11:00.173Z,16.8
2018-08-18T05:11:50.760Z,16.8
2018-08-18T05:12:40.536Z,16.7
2018-08-18T05:13:30.630Z,16.8
2018-08-18T05:14:20.441Z,16.8
2018-08-18T05:15:10.744Z,16.8
2018-08-18T05:16:00.000Z,16.9
2018-08-18T05:16:50.711Z,16.9
2018-08-18T05:17:40.679Z,16.9
2018-08-18T05:18:29.889Z,16.9
2018-08-18T05:19:21.667Z,17.1
2018-08-18T05:20:11.170Z,17.2
2018-08-18T05:21:00.650Z,17.3
2018-08-18T05:21:51.301Z,17.4
2018-08-18T05:22:41.084Z,17.4
2018-08-18T05:23:31.148Z,17.7
2018-08-18T05:24:21.224Z,17.8
2018-08-18T05:25:10.709Z,17.9
2018-08-18T05:26:01.322Z,17.9
2018-08-18T05:26:51.386Z,17.9
2018-08-18T05:27:41.441Z,18
2018-08-18T05:28:31.508Z,18
2018-08-18T05:29:21.633Z,18
2018-08-18T05:30:11.663Z,18.1
2018-08-18T05:31:01.708Z,18.1
2018-08-18T05:31:51.780Z,18
2018-08-18T05:32:41.853Z,18.2
2018-08-18T05:33:32.144Z,18.4
2018-08-18T05:34:22.219Z,18.5
2018-08-18T05:35:12.322Z,18.4
2018-08-18T05:36:02.381Z,18.3
2018-08-18T05:36:52.116Z,18.4
2018-08-18T05:37:42.468Z,18.5
2018-08-18T05:38:32.260Z,18.6
2018-08-18T05:39:22.334Z,18.6
2018-08-18T05:41:02.457Z,18.8
2018-08-18T05:41:52.777Z,18.8
2018-08-18T05:42:42.572Z,19
2018-08-18T05:43:32.928Z,18.9
2018-08-18T05:44:22.711Z,18.9
2018-08-18T05:45:12.733Z,18.8
2018-08-18T05:46:53.172Z,18.9
2018-08-18T05:47:44.238Z,19.1
2018-08-18T05:48:33.029Z,18.9
2018-08-18T05:49:23.408Z,19
2018-08-18T05:50:13.430Z,19.2
2018-08-18T05:51:03.213Z,19.1
2018-08-18T05:51:53.573Z,18.9
2018-08-18T05:52:43.639Z,19
2018-08-18T05:53:33.513Z,19.1
2018-08-18T05:54:23.493Z,19.3
2018-08-18T05:55:13.854Z,19.4
2018-08-18T05:56:03.058Z,19.4
2018-08-18T05:56:53.412Z,19.2
2018-08-18T05:57:43.469Z,19.2
2018-08-18T05:58:34.087Z,19.1
2018-08-18T05:59:23.886Z,19
2018-08-18T06:00:13.963Z,19.1
2018-08-18T06:01:03.741Z,19.3
2018-08-18T06:01:54.086Z,19.4
2018-08-18T06:02:44.120Z,19.5
2018-08-18T06:03:34.208Z,19.2
2018-08-18T06:04:24.563Z,19.2
2018-08-18T06:05:14.045Z,19.4
2018-08-18T06:06:04.438Z,19.6
2018-08-18T06:06:54.184Z,19.4
2018-08-18T06:07:44.503Z,19.7
2018-08-18T06:08:34.597Z,19.9
2018-08-18T06:09:24.979Z,20.2
2018-08-18T06:10:14.956Z,20.1
2018-08-18T06:11:05.069Z,20.4
2018-08-18T06:11:54.582Z,19.9
2018-08-18T06:12:45.181Z,20.3
2018-08-18T06:13:35.254Z,20.6
2018-08-18T06:14:24.982Z,20.4
2018-08-18T06:15:15.375Z,20.2
2018-08-18T06:16:05.403Z,20.1
2018-08-18T06:16:55.212Z,19.9
2018-08-18T06:17:44.971Z,20.1
2018-08-18T06:18:35.326Z,20.1
2018-08-18T06:19:25.394Z,20
2018-08-18T06:20:14.706Z,20.1
2018-08-18T06:21:05.799Z,19.9
2018-08-18T06:21:55.401Z,20.1
2018-08-18T06:22:45.940Z,20.4
2018-08-18T06:23:36.066Z,20.3
2018-08-18T06:24:26.080Z,20.3
2018-08-18T06:25:16.110Z,20.4
2018-08-18T06:26:05.928Z,20.2
2018-08-18T06:26:56.000Z,20.3
2018-08-18T06:27:46.069Z,20.5
2018-08-18T06:28:35.838Z,21
2018-08-18T06:29:25.893Z,21.2
2018-08-18T06:30:15.685Z,21.2
2018-08-18T06:31:06.593Z,21.6
2018-08-18T06:31:56.164Z,21.2
2018-08-18T06:32:46.162Z,21.2
2018-08-18T06:33:36.822Z,21.3
2018-08-18T06:34:26.950Z,21.5
2018-08-18T06:35:16.957Z,21.8
2018-08-18T06:36:06.422Z,22
2018-08-18T06:36:57.039Z,22.2
2018-08-18T06:37:46.818Z,22.3
2018-08-18T06:38:36.627Z,22.5
2018-08-18T06:39:27.228Z,22.6
2018-08-18T06:40:17.027Z,22.9
2018-08-18T06:41:07.147Z,22.6
2018-08-18T06:41:58.386Z,22.3
2018-08-18T06:42:47.574Z,22.3
2018-08-18T06:43:37.283Z,22.6
2018-08-18T06:44:27.354Z,22.9
2018-08-18T06:45:17.385Z,23.2
2018-08-18T06:46:07.457Z,23.3
2018-08-18T06:46:57.797Z,23.3
2018-08-18T06:47:47.593Z,23
2018-08-18T06:48:37.110Z,22.8
2018-08-18T06:49:27.703Z,23.1
2018-08-18T06:50:17.774Z,22.6
2018-08-18T06:51:07.875Z,22.5
2018-08-18T06:51:58.170Z,22.6
2018-08-18T06:52:48.006Z,22.7
2018-08-18T06:53:38.040Z,22.9
2018-08-18T06:54:28.674Z,23.3
2018-08-18T06:55:19.845Z,23.4
2018-08-18T06:56:08.500Z,23.4
2018-08-18T06:56:58.832Z,23.7
2018-08-18T06:57:47.815Z,24
2018-08-18T06:58:38.419Z,24.2
2018-08-18T06:59:28.745Z,24.4
2018-08-18T07:00:18.839Z,24.4
2018-08-18T07:01:08.620Z,24.5
2018-08-18T07:01:58.973Z,24.6
2018-08-18T07:02:48.183Z,24.3
2018-08-18T07:03:38.988Z,24.3
2018-08-18T07:04:29.170Z,24.4
2018-08-18T07:05:19.247Z,24.5
2018-08-18T07:06:09.309Z,24.3
2018-08-18T07:06:59.369Z,24.1
2018-08-18T07:07:49.427Z,24.3
2018-08-18T07:08:39.488Z,24.4
2018-08-18T07:09:29.278Z,24.6
2018-08-18T07:10:19.645Z,24.3
2018-08-18T07:11:09.420Z,24.4
2018-08-18T07:11:59.481Z,24.9
2018-08-18T07:12:49.533Z,24.7
2018-08-18T07:13:39.624Z,24.9
2018-08-18T07:14:29.645Z,24.9
2018-08-18T07:15:19.176Z,25.2
2018-08-18T07:16:09.801Z,25.5
2018-08-18T07:17:00.155Z,25.4
2018-08-18T07:17:50.208Z,25.6
2018-08-18T07:18:40.325Z,25.7
2018-08-18T07:19:30.962Z,25.9
2018-08-18T07:20:20.223Z,25.8
2018-08-18T07:21:09.871Z,26.1
2018-08-18T07:22:00.251Z,26
2018-08-18T07:22:50.600Z,26
2018-08-18T07:23:40.344Z,26.2
2018-08-18T07:24:30.695Z,26.1
2018-08-18T07:25:20.756Z,26.3
2018-08-18T07:26:10.875Z,26.1
2018-08-18T07:27:00.864Z,25.9
2018-08-18T07:27:50.964Z,25.9
2018-08-18T07:28:41.672Z,25.8
2018-08-18T07:29:31.068Z,25.9
2018-08-18T07:30:21.139Z,25.6
2018-08-18T07:31:11.249Z,25.4
2018-08-18T07:32:00.992Z,25.5
2018-08-18T07:32:51.078Z,26.1
2018-08-18T07:33:41.473Z,26.4
2018-08-18T07:34:31.459Z,26.5
2018-08-18T07:35:20.957Z,26.4
2018-08-18T07:36:11.349Z,26.7
2018-08-18T07:37:01.609Z,26.9
2018-08-18T07:37:51.747Z,26.9
2018-08-18T07:38:41.834Z,26.9
2018-08-18T07:39:31.620Z,26.9
2018-08-18T07:40:21.379Z,26.9
2018-08-18T07:41:11.743Z,26.8
2018-08-18T07:42:01.801Z,26.8
2018-08-18T07:42:52.180Z,26.9
2018-08-18T07:43:41.659Z,27.3
2018-08-18T07:44:31.998Z,27.3
2018-08-18T07:45:22.345Z,27.1
2018-08-18T07:46:12.582Z,27.1
2018-08-18T07:47:02.187Z,27.2
2018-08-18T07:47:52.237Z,27.1
2018-08-18T07:48:42.585Z,26.8
2018-08-18T07:49:32.096Z,27.3
2018-08-18T07:50:22.729Z,27.3
2018-08-18T07:51:12.227Z,27.1
2018-08-18T07:52:02.568Z,27.1
2018-08-18T07:52:52.903Z,27.3
2018-08-18T07:53:42.819Z,27.5
2018-08-18T07:54:33.059Z,27.9
2018-08-18T07:55:22.834Z,28.4
2018-08-18T07:56:13.139Z,27.9
2018-08-18T07:57:02.916Z,28.1
2018-08-18T07:57:52.496Z,28.2
2018-08-18T07:58:43.368Z,28.2
2018-08-18T07:59:33.512Z,28.1
2018-08-18T08:00:23.477Z,27.7
2018-08-18T08:01:13.569Z,26.8
2018-08-18T08:02:03.628Z,26.4
2018-08-18T08:02:53.392Z,26.2
2018-08-18T08:03:43.737Z,26.3
2018-08-18T08:04:33.502Z,26.8
2018-08-18T08:05:23.645Z,26.8
2018-08-18T08:06:13.934Z,26.6
2018-08-18T08:07:03.723Z,26.3
2018-08-18T08:07:53.776Z,26.6
2018-08-18T08:08:44.113Z,26.9
2018-08-18T08:09:33.633Z,27.1
2018-08-18T08:10:24.227Z,27.1
2018-08-18T08:11:14.050Z,26.5
2018-08-18T08:12:04.419Z,26.3
2018-08-18T08:12:55.003Z,27.1
2018-08-18T08:13:44.233Z,27.3
2018-08-18T08:14:34.608Z,27.8
2018-08-18T08:15:24.675Z,27.9
2018-08-18T08:16:14.710Z,27.4
2018-08-18T08:17:04.501Z,27.3
2018-08-18T08:17:54.570Z,27.5
2018-08-18T08:18:44.632Z,28.1
2018-08-18T08:19:34.404Z,28.3
2018-08-18T08:20:25.059Z,28.5
2018-08-18T08:21:14.835Z,28.6
2018-08-18T08:22:04.915Z,28.9
2018-08-18T08:22:55.260Z,28.8
2018-08-18T08:23:44.741Z,28.4
2018-08-18T08:24:35.099Z,28.5
2018-08-18T08:25:25.425Z,28.7
2018-08-18T08:26:15.508Z,29.1
2018-08-18T08:27:05.559Z,29.4
2018-08-18T08:27:55.637Z,29.4
2018-08-18T08:28:45.695Z,28.8
2018-08-18T08:29:36.152Z,28.1
2018-08-18T08:30:25.869Z,28.1
2018-08-18T08:31:15.881Z,28.4
2018-08-18T08:32:05.907Z,28.4
2018-08-18T08:32:55.826Z,28.1
2018-08-18T08:33:46.194Z,28.5
2018-08-18T08:34:36.144Z,29.1
2018-08-18T08:35:25.916Z,29.4
2018-08-18T08:36:15.686Z,29.6
2018-08-18T08:37:06.332Z,29.9
2018-08-18T08:37:56.114Z,30.1
2018-08-18T08:38:46.475Z,29.9
2018-08-18T08:39:36.237Z,30.2
2018-08-18T08:40:26.337Z,30.5
2018-08-18T08:41:18.154Z,30.7
2018-08-18T08:42:06.427Z,30.8
2018-08-18T08:42:58.667Z,30.8
2018-08-18T08:43:46.564Z,30.6
2018-08-18T08:44:36.633Z,30.6
2018-08-18T08:45:27.387Z,30.6
2018-08-18T08:46:16.737Z,30.4
2018-08-18T08:47:06.442Z,30.4
2018-08-18T08:47:56.903Z,30.5
2018-08-18T08:48:46.665Z,30.5
2018-08-18T08:49:37.281Z,30.7
2018-08-18T08:50:27.465Z,30.4
2018-08-18T08:51:17.458Z,30.3
2018-08-18T08:52:07.233Z,29.3
2018-08-18T08:52:57.597Z,29.1
2018-08-18T08:53:47.733Z,29.5
2018-08-18T08:54:37.931Z,29.9
2018-08-18T08:55:26.951Z,29.8
2018-08-18T08:56:18.115Z,29.8
2018-08-18T08:57:08.337Z,28.8
2018-08-18T08:57:57.973Z,29
2018-08-18T08:58:48.548Z,29.8
2018-08-18T08:59:38.813Z,30.3
2018-08-18T09:00:28.181Z,30.6
2018-08-18T09:01:18.230Z,31.1
2018-08-18T09:02:08.362Z,29.8
2018-08-18T09:02:58.025Z,29.6
2018-08-18T09:03:48.826Z,29.8
2018-08-18T09:04:38.410Z,30.3
2018-08-18T09:21:12.008Z,29.8
2018-08-18T09:22:01.456Z,29.8
2018-08-18T09:22:52.084Z,29.7
2018-08-18T09:23:42.160Z,29.9
2018-08-18T09:24:31.928Z,29.9
2018-08-18T09:25:22.619Z,29.4
2018-08-18T09:26:12.981Z,29.5
2018-08-18T09:27:01.547Z,30.2
2018-08-18T09:27:52.735Z,30.3
2018-08-18T09:28:42.538Z,29.8
2018-08-18T09:29:32.869Z,30.3
2018-08-18T09:30:22.954Z,30.4
2018-08-18T09:31:13.040Z,30.3
2018-08-18T09:32:03.079Z,30.6
2018-08-18T09:32:53.152Z,30.9
2018-08-18T09:33:43.224Z,30.3
2018-08-18T09:34:33.299Z,29.7
2018-08-18T09:35:23.084Z,29.4
2018-08-18T09:36:13.818Z,29.9
2018-08-18T09:37:03.494Z,30.4
2018-08-18T09:37:53.552Z,30.9
2018-08-18T09:38:43.360Z,31
2018-08-18T09:39:33.411Z,31
2018-08-18T09:40:23.755Z,31.2
2018-08-18T09:41:13.830Z,30.8
2018-08-18T09:42:03.334Z,30.8
2018-08-18T09:42:53.943Z,31.1
2018-08-18T09:43:43.733Z,31.1
2018-08-18T09:44:34.089Z,31.3
2018-08-18T09:45:24.473Z,31.4
2018-08-18T09:46:13.603Z,31.8
2018-08-18T09:47:04.277Z,31.9
2018-08-18T09:47:54.045Z,31.8
2018-08-18T09:48:44.413Z,31.8
2018-08-18T09:49:33.882Z,31.8
2018-08-18T09:50:23.931Z,31.9
2018-08-18T09:51:14.571Z,31.3
2018-08-18T09:52:04.626Z,31.4
2018-08-18T09:52:54.709Z,31.3
2018-08-18T09:53:44.011Z,31.1
2018-08-18T09:54:34.827Z,31.1
2018-08-18T09:55:24.061Z,31.5
2018-08-18T09:56:14.677Z,32.1
2018-08-18T09:57:04.834Z,32.1
2018-08-18T09:57:55.089Z,31.9
2018-08-18T09:58:45.238Z,32.3
2018-08-18T09:59:35.252Z,31.9
2018-08-18T10:00:25.292Z,31.8
2018-08-18T10:01:15.128Z,31.6
2018-08-18T10:02:05.422Z,31.6
2018-08-18T10:02:55.499Z,31.8
2018-08-18T10:03:45.275Z,32
2018-08-18T10:04:35.613Z,31.9
2018-08-18T10:05:25.683Z,31.9
2018-08-18T10:06:15.604Z,31.9
2018-08-18T10:07:05.846Z,32
2018-08-18T10:07:55.925Z,31.6
2018-08-18T10:08:45.968Z,30.8
2018-08-18T10:09:36.020Z,30.9
2018-08-18T10:10:25.831Z,31.1
2018-08-18T10:11:16.164Z,31.4
2018-08-18T10:12:06.272Z,31.8
2018-08-18T10:12:56.299Z,32.2
2018-08-18T10:13:46.345Z,32
2018-08-18T10:14:36.400Z,31.7
2018-08-18T10:15:26.159Z,31.3
2018-08-18T10:16:16.579Z,31.1
2018-08-18T10:17:06.621Z,31.4
2018-08-18T10:17:56.427Z,31.6
2018-08-18T10:18:46.471Z,31.4
2018-08-18T10:19:36.245Z,31.1
2018-08-18T10:20:26.596Z,31.1
2018-08-18T10:21:16.944Z,31.2
2018-08-18T10:22:06.181Z,31.3
2018-08-18T10:22:56.802Z,31.5
2018-08-18T10:23:47.162Z,32
2018-08-18T10:24:36.882Z,32.4
2018-08-18T10:25:27.243Z,32.5
2018-08-18T10:26:16.740Z,31.8
2018-08-18T10:27:07.563Z,31.3
2018-08-18T10:27:57.481Z,31.5
2018-08-18T10:28:47.223Z,31.4
2018-08-18T10:29:37.562Z,31.6
2018-08-18T10:30:27.355Z,30.7
2018-08-18T10:31:17.141Z,30.8
2018-08-18T10:32:07.479Z,31.4
2018-08-18T10:32:57.570Z,31.8
2018-08-18T10:33:47.615Z,31.9
2018-08-18T10:34:37.956Z,32.1
2018-08-18T10:35:28.037Z,32.2
2018-08-18T10:36:18.114Z,32.3
2018-08-18T10:37:07.885Z,32.1
2018-08-18T10:37:58.273Z,32.3
2018-08-18T10:38:48.011Z,32.6
2018-08-18T10:39:38.082Z,32.1
2018-08-18T10:40:28.419Z,31.3
2018-08-18T10:41:18.480Z,31.6
2018-08-18T10:42:09.344Z,31.7
2018-08-18T10:42:58.641Z,31.9
2018-08-18T10:43:48.786Z,32.2
2018-08-18T10:44:38.786Z,32.3
2018-08-18T10:45:28.850Z,32.4
2018-08-18T10:46:18.908Z,32.8
2018-08-18T10:47:08.954Z,32.6
2018-08-18T10:47:59.021Z,32.3
2018-08-18T10:48:49.094Z,31.9
2018-08-18T10:49:39.161Z,31.6
2018-08-18T10:50:29.232Z,31.6
2018-08-18T10:51:19.034Z,31.3
2018-08-18T10:52:09.353Z,31.8
2018-08-18T10:52:58.861Z,31.6
2018-08-18T10:53:49.494Z,31.2
2018-08-18T10:54:39.566Z,31.5
2018-08-18T10:55:29.340Z,32.1
2018-08-18T10:56:19.701Z,32.8
2018-08-18T10:57:09.762Z,33.3
2018-08-18T10:57:59.565Z,33.2
2018-08-18T10:58:49.621Z,33.1
2018-08-18T10:59:39.408Z,32.3
2018-08-18T11:00:29.697Z,32.3
2018-08-18T11:01:19.774Z,32.4
2018-08-18T11:02:10.130Z,32.7
2018-08-18T11:03:00.166Z,32.6
2018-08-18T11:03:50.565Z,32.4
2018-08-18T11:04:40.304Z,32.3
2018-08-18T11:05:30.128Z,32.4
2018-08-18T11:06:20.449Z,32.1
2018-08-18T11:07:09.671Z,32.3
2018-08-18T11:08:00.296Z,32.6
2018-08-18T11:08:50.677Z,32.3
2018-08-18T11:09:40.146Z,32.4
2018-08-18T11:10:30.777Z,32.6
2018-08-18T11:11:20.616Z,32.8
2018-08-18T11:12:10.364Z,32.6
2018-08-18T11:13:00.978Z,32.3
2018-08-18T11:13:51.010Z,32.1
2018-08-18T11:14:41.085Z,31.9
2018-08-18T11:15:30.895Z,32.1
2018-08-18T11:16:20.684Z,31.9
2018-08-18T11:17:11.043Z,31.9
2018-08-18T11:18:01.401Z,32.3
2018-08-18T11:18:51.455Z,32.4
2018-08-18T11:19:41.540Z,32.7
2018-08-18T11:20:31.572Z,32.3
2018-08-18T11:21:21.650Z,31.9
2018-08-18T11:22:11.455Z,31.6
2018-08-18T11:23:01.805Z,31.3
2018-08-18T11:23:51.852Z,31.4
2018-08-18T11:24:41.904Z,31.4
2018-08-18T11:25:31.413Z,31.5
2018-08-18T11:26:21.767Z,31.3
2018-08-18T11:27:11.831Z,31.5
2018-08-18T11:28:01.690Z,31.8
2018-08-18T11:28:52.702Z,32
2018-08-18T11:29:42.288Z,31.8
2018-08-18T11:30:32.366Z,31.6
2018-08-18T11:31:22.456Z,31.1
2018-08-18T11:32:12.539Z,31
2018-08-18T11:33:02.613Z,31.1
2018-08-18T11:33:52.355Z,31.1
2018-08-18T11:34:42.750Z,31.4
2018-08-18T11:35:32.734Z,31.7
2018-08-18T11:36:22.525Z,31.3
2018-08-18T11:37:12.877Z,30.9
2018-08-18T11:38:02.944Z,31.6
2018-08-18T11:38:52.734Z,32.1
2018-08-18T11:39:43.076Z,32.3
2018-08-18T11:40:32.852Z,32.3
2018-08-18T11:41:23.240Z,32.3
2018-08-18T11:42:12.969Z,32.4
2018-08-18T11:43:03.334Z,32.7
2018-08-18T11:43:53.414Z,33
2018-08-18T11:44:43.443Z,33.4
2018-08-18T11:45:33.575Z,33.6
2018-08-18T11:46:23.051Z,33.3
2018-08-18T11:47:13.489Z,32.9
2018-08-18T11:48:03.718Z,32.9
2018-08-18T11:48:53.843Z,32.9
2018-08-18T11:49:43.591Z,32.9
2018-08-18T11:50:33.918Z,32.9
2018-08-18T11:51:23.703Z,32.9
2018-08-18T11:52:13.791Z,32.8
2018-08-18T11:53:04.132Z,32.6
2018-08-18T11:53:54.195Z,32.3
2018-08-18T11:54:44.006Z,32.3
2018-08-18T11:55:34.316Z,32.5
2018-08-18T11:56:24.394Z,32.6
2018-08-18T11:57:13.902Z,32.8
2018-08-18T11:58:04.517Z,32.6
2018-08-18T11:58:54.637Z,32.9
2018-08-18T11:59:44.667Z,33.4
2018-08-18T12:00:34.451Z,33.6
2018-08-18T12:01:24.798Z,33.3